Aérodrome :
LOGIN :

S'inscrire | Disclaimer

   EN    FR    IT 

 










Légende :    VFR   VFR Marginal   IFR   IFR Intensif   IFR Très Intensif
Visi : 
Plafond : 
>= 8 km
>= 3000ft
5 à 8 km
1000 à 3000 ft
1500m à 5 km
500 à 1000 ft
800 à 1500m
200 à 500 ft
< 800m
< 200 ft
Symboles :   Orages  Brouillard  Fortes neiges  Fortes précipitations  Vent > 20 kt
SIGMETs :   Divers  Orages  Givrage  Turbulence  Onde Orograph.  Cendres Volcan.







- Altitude de l'aérodrome : 49 ft
- Code IATA : SEN
- Voir les cartes d'approche


EGMC - Southend

DERNIER METAR :
  • 192250Z 19012KT 9000 -RA SCT017 15/12 Q1000

METARs EXPIRÉS :
  • 192220Z 19012KT 9000 -RA SCT017 15/12 Q1000
  • 192150Z 18014KT 9000 RA SCT033 16/12 Q1001
  • 192120Z 16011KT 9000 RA SCT033 16/12 Q1001
  • 192050Z 16011KT CAVOK 17/12 Q1001
  • 192020Z 17010KT 9999 FEW043 16/12 Q1001

TAF TAF EGMC
Valide du 19 à 21h jusqu'au 20 à 06h UTC


192000Z 1921/2006 19012KT 9999 FEW020
TEMPO 1921/2006 6000 -RADZ BKN014
PROB40
TEMPO 1921/1923 3000 +RA
PROB30
TEMPO 1921/2006 20015G25KT
PROB40
TEMPO 2003/2006 3000 RA
Pas de NOTAMs connus pour ce terrain.
1 SIGMET publié pour la FIR London (EGTT) :
 
Turbulence forte
EGTT SIGMET 03 VALID 192020/192330 EGRR
EGTT LONDON FIR SEV TURB FCST WI N5149 W00608 - N5024 W00401 - N5034 W00229 - N5000 W00200 - N4919 W00538 - N5053 W00720 - N5149 W00608 SFC/FL060 MOV E 20KT NC=



MET'MAP, la Météo Aéronautique d'un coup d'oeil ! - Copyright ORBIFLY Décembre 2007 - Disclaimer

ORBIFLY MET'MAP TEAM :

Programmation & Développement : Alexandra Zaïnal
Conception & Développement : Baudouin d'Aumeries
Co-Programmation & Développement : Marc-Olivier Méhu
Soutien technique & logistique : Manuel Goepfert

Contact : metmap@orbifly.com




SOURCES & CREDITS :

   NOAA